createdAt,value
2019-03-17T01:30:08.416Z,81.90
2019-03-17T01:32:36.886Z,81.80
2019-03-17T01:35:09.505Z,81.90
2019-03-17T01:37:35.391Z,82.00
2019-03-17T01:40:03.665Z,81.90
2019-03-17T01:42:33.683Z,82.10
2019-03-17T01:45:02.166Z,81.90
2019-03-17T01:47:30.238Z,81.80
2019-03-17T01:49:59.128Z,81.90
2019-03-17T01:52:27.921Z,81.70
2019-03-17T01:54:56.214Z,81.80
2019-03-17T01:57:24.883Z,81.80
2019-03-17T01:59:52.852Z,81.80
2019-03-17T02:02:21.444Z,81.80
2019-03-17T02:04:50.236Z,81.70
2019-03-17T02:07:19.837Z,81.70
2019-03-17T02:09:48.623Z,81.80
2019-03-17T02:12:16.918Z,81.80
2019-03-17T02:14:45.079Z,81.90
2019-03-17T02:17:14.094Z,81.90
2019-03-17T02:19:42.456Z,81.90
2019-03-17T02:22:10.734Z,81.90
2019-03-17T02:24:40.038Z,82.20
2019-03-17T02:27:08.205Z,81.90
2019-03-17T02:29:36.483Z,81.90
2019-03-17T02:32:04.979Z,81.80
2019-03-17T02:34:33.242Z,81.80
2019-03-17T02:37:03.071Z,81.90
2019-03-17T02:39:31.643Z,82.00
2019-03-17T02:41:59.814Z,81.90
2019-03-17T02:44:28.170Z,82.10
2019-03-17T02:46:56.374Z,81.90
2019-03-17T02:49:24.945Z,81.80
2019-03-17T02:51:53.036Z,81.90
2019-03-17T02:54:21.411Z,81.70
2019-03-17T02:56:49.480Z,81.80
2019-03-17T02:59:18.065Z,81.80
2019-03-17T03:01:46.346Z,81.70
2019-03-17T03:04:14.927Z,81.60
2019-03-17T03:06:43.211Z,81.70
2019-03-17T03:09:11.709Z,81.70
2019-03-17T03:11:39.965Z,81.70
2019-03-17T03:14:08.448Z,82.50
2019-03-17T03:16:37.039Z,81.60
2019-03-17T03:19:05.314Z,81.70
2019-03-17T03:21:33.915Z,81.50
2019-03-17T03:24:02.590Z,81.70
2019-03-17T03:26:30.858Z,81.70
2019-03-17T03:28:58.828Z,81.60
2019-03-17T03:31:28.701Z,81.70
2019-03-17T03:33:56.921Z,81.60
2019-03-17T03:36:25.303Z,81.60
2019-03-17T03:38:53.687Z,81.60
2019-03-17T03:41:23.500Z,81.80
2019-03-17T03:43:51.770Z,81.80
2019-03-17T03:46:21.378Z,82.00
2019-03-17T03:48:51.911Z,81.90
2019-03-17T03:51:20.289Z,81.80
2019-03-17T03:53:49.303Z,82.10
2019-03-17T03:56:20.008Z,81.90
2019-03-17T03:58:48.602Z,82.10
2019-03-17T04:01:16.983Z,82.00
2019-03-17T04:03:48.176Z,81.90
2019-03-17T04:06:26.534Z,82.00
2019-03-17T04:08:47.461Z,82.00
2019-03-17T04:11:15.746Z,82.10
2019-03-17T04:13:44.111Z,82.10
2019-03-17T04:16:12.585Z,82.10
2019-03-17T04:18:41.580Z,82.10
2019-03-17T04:21:10.632Z,82.00
2019-03-17T04:23:38.649Z,81.90
2019-03-17T04:26:06.925Z,81.90
2019-03-17T04:28:35.409Z,81.90
2019-03-17T04:31:03.974Z,82.00
2019-03-17T04:33:31.796Z,82.10
2019-03-17T04:36:00.034Z,82.90
2019-03-17T04:38:28.619Z,82.80
2019-03-17T04:40:57.182Z,82.10
2019-03-17T04:43:26.715Z,82.10
2019-03-17T04:45:55.520Z,82.10
2019-03-17T04:48:23.685Z,82.00
2019-03-17T04:50:52.577Z,82.20
2019-03-17T04:53:20.739Z,82.10
2019-03-17T04:55:48.914Z,82.00
2019-03-17T04:58:17.807Z,81.90
2019-03-17T05:00:46.493Z,81.90
2019-03-17T05:03:14.612Z,81.90
2019-03-17T05:05:42.742Z,81.80
2019-03-17T05:08:11.224Z,81.70
2019-03-17T05:10:42.533Z,81.70
2019-03-17T05:13:10.747Z,81.70
2019-03-17T05:15:39.026Z,81.70
2019-03-17T05:18:07.408Z,81.80
2019-03-17T05:20:35.871Z,81.80
2019-03-17T05:23:05.860Z,81.90
2019-03-17T05:25:35.660Z,81.90
2019-03-17T05:28:03.998Z,81.80
2019-03-17T05:30:34.118Z,81.70
2019-03-17T05:33:02.426Z,81.70
2019-03-17T05:35:30.774Z,81.80
2019-03-17T05:37:59.261Z,81.80
2019-03-17T05:40:27.433Z,81.70
2019-03-17T05:42:55.785Z,81.80
2019-03-17T05:45:23.993Z,81.90
2019-03-17T05:47:53.086Z,81.80
2019-03-17T05:50:21.367Z,81.80
2019-03-17T05:52:49.952Z,81.80
2019-03-17T05:55:18.287Z,81.80
2019-03-17T05:57:50.084Z,82.20
2019-03-17T06:00:18.792Z,81.80
2019-03-17T06:02:47.155Z,81.70
2019-03-17T06:05:15.942Z,81.70
2019-03-17T06:07:44.196Z,81.80
2019-03-17T06:10:12.804Z,81.80
2019-03-17T06:12:41.493Z,81.80
2019-03-17T06:15:09.974Z,81.80
2019-03-17T06:17:39.074Z,81.70
2019-03-17T06:20:07.472Z,81.70
2019-03-17T06:22:35.727Z,81.80
2019-03-17T06:25:04.823Z,81.70
2019-03-17T06:27:33.509Z,81.60
2019-03-17T06:30:01.894Z,81.50
2019-03-17T06:32:30.066Z,81.40
2019-03-17T06:35:00.593Z,81.50
2019-03-17T06:37:31.194Z,81.50
2019-03-17T06:40:09.028Z,81.70
2019-03-17T06:45:31.336Z,81.30
2019-03-17T06:48:08.883Z,81.30
2019-03-17T06:53:34.827Z,81.30
2019-03-17T06:56:03.533Z,81.30
2019-03-17T06:58:32.526Z,81.30
2019-03-17T07:01:01.400Z,81.40
2019-03-17T07:03:29.268Z,81.40
2019-03-17T07:05:58.056Z,81.40
2019-03-17T07:08:26.434Z,81.50
2019-03-17T07:10:55.437Z,81.50
2019-03-17T07:13:24.116Z,81.50
2019-03-17T07:15:55.977Z,81.50
2019-03-17T07:18:24.666Z,81.40
2019-03-17T07:20:55.010Z,81.40
2019-03-17T07:23:23.575Z,81.50
2019-03-17T07:25:54.047Z,81.70
2019-03-17T07:28:22.793Z,81.50
2019-03-17T07:30:51.075Z,81.50
2019-03-17T07:33:19.659Z,81.60
2019-03-17T07:35:48.036Z,81.60
2019-03-17T07:38:16.115Z,81.60
2019-03-17T07:40:44.694Z,81.60
2019-03-17T07:43:13.381Z,81.70
2019-03-17T07:45:41.760Z,81.70
2019-03-17T07:48:10.451Z,81.70
2019-03-17T07:50:39.458Z,81.70
2019-03-17T07:53:07.404Z,81.80
2019-03-17T07:55:36.108Z,81.80
2019-03-17T07:58:04.790Z,81.90
2019-03-17T08:00:33.143Z,83.10
2019-03-17T08:03:01.442Z,83.50
2019-03-17T08:05:29.929Z,83.70
2019-03-17T08:08:08.833Z,83.60
2019-03-17T08:10:31.806Z,83.50
2019-03-17T08:13:00.388Z,83.40
2019-03-17T08:15:29.285Z,83.40
2019-03-17T08:17:57.457Z,83.40
2019-03-17T08:20:25.634Z,83.30
2019-03-17T08:22:53.907Z,83.40
2019-03-17T08:25:22.409Z,83.60
2019-03-17T08:27:50.670Z,83.40
2019-03-17T08:30:18.800Z,83.40
2019-03-17T08:32:47.030Z,83.40
2019-03-17T08:35:15.602Z,83.20
2019-03-17T08:37:45.010Z,83.30
2019-03-17T08:40:13.899Z,83.20
2019-03-17T08:42:42.386Z,83.20
2019-03-17T08:45:11.071Z,83.00
2019-03-17T08:47:40.285Z,83.00
2019-03-17T08:50:11.843Z,83.00
2019-03-17T08:52:40.623Z,82.90
2019-03-17T08:55:10.021Z,82.90
2019-03-17T08:57:38.403Z,82.80
2019-03-17T09:00:06.773Z,82.70
2019-03-17T09:02:36.399Z,82.90
2019-03-17T09:05:04.455Z,82.70
2019-03-17T09:07:32.834Z,82.70
2019-03-17T09:10:04.973Z,82.60
2019-03-17T09:12:32.975Z,82.60
2019-03-17T09:15:01.871Z,82.60
2019-03-17T09:17:31.369Z,82.60
2019-03-17T09:19:59.958Z,82.70
2019-03-17T09:22:31.999Z,82.70
2019-03-17T09:25:10.930Z,82.70
2019-03-17T09:28:08.789Z,82.50
2019-03-17T09:48:07.144Z,82.70
2019-03-17T09:50:35.708Z,82.70
2019-03-17T09:53:05.110Z,82.70
2019-03-17T09:55:34.822Z,82.60
2019-03-17T09:58:03.460Z,82.60
2019-03-17T10:00:32.606Z,82.60
2019-03-17T10:03:00.711Z,82.80
2019-03-17T10:05:29.367Z,82.80
2019-03-17T10:07:57.547Z,82.80
2019-03-17T10:10:26.025Z,82.90
2019-03-17T10:12:55.296Z,83.00
2019-03-17T10:15:23.713Z,83.10
2019-03-17T10:17:51.778Z,83.10
2019-03-17T10:20:20.263Z,83.10
2019-03-17T10:22:49.049Z,83.30
2019-03-17T10:25:18.350Z,83.50
2019-03-17T10:27:46.422Z,83.50
2019-03-17T10:30:15.535Z,83.90
2019-03-17T10:32:44.106Z,84.20
2019-03-17T10:35:12.995Z,84.20
2019-03-17T10:37:41.683Z,84.00
2019-03-17T10:40:10.585Z,83.90
2019-03-17T10:42:44.354Z,83.70
2019-03-17T10:45:12.659Z,83.70
2019-03-17T10:47:40.943Z,83.60
2019-03-17T10:50:09.326Z,83.70
2019-03-17T10:52:37.493Z,83.70
2019-03-17T10:55:06.179Z,83.80
2019-03-17T10:57:35.208Z,83.90
2019-03-17T11:00:04.082Z,83.90
2019-03-17T11:02:32.553Z,83.90
2019-03-17T11:05:01.138Z,83.80
2019-03-17T11:07:29.513Z,83.90
2019-03-17T11:09:57.606Z,84.20
2019-03-17T11:12:28.121Z,84.10
2019-03-17T11:14:56.293Z,84.30
2019-03-17T11:17:24.845Z,84.40
2019-03-17T11:19:53.049Z,84.30
2019-03-17T11:22:21.847Z,84.40
2019-03-17T11:24:50.637Z,84.40
2019-03-17T11:27:19.431Z,84.50
2019-03-17T11:29:48.313Z,84.60
2019-03-17T11:32:16.384Z,84.70
2019-03-17T11:34:44.768Z,84.90
2019-03-17T11:37:13.245Z,84.80
2019-03-17T11:39:41.730Z,84.80
2019-03-17T11:42:10.105Z,84.80
2019-03-17T11:44:39.119Z,84.70
2019-03-17T11:47:07.583Z,84.80
2019-03-17T11:49:35.760Z,84.80
2019-03-17T11:52:04.036Z,85.00
2019-03-17T11:54:32.722Z,84.90
2019-03-17T11:57:01.203Z,84.90
2019-03-17T11:59:29.178Z,85.10
2019-03-17T12:01:57.472Z,85.20
2019-03-17T12:04:26.547Z,85.70
2019-03-17T12:06:56.713Z,85.90
2019-03-17T12:09:29.240Z,86.40
2019-03-17T12:11:54.559Z,86.20
2019-03-17T12:14:23.552Z,86.30
2019-03-17T12:16:52.138Z,86.20
2019-03-17T12:19:21.026Z,86.30
2019-03-17T12:21:49.712Z,86.20
2019-03-17T12:24:18.000Z,86.20
2019-03-17T12:26:46.579Z,86.20
2019-03-17T12:29:15.365Z,85.90
2019-03-17T12:31:43.543Z,85.80
2019-03-17T12:34:12.129Z,85.80
2019-03-17T12:36:40.720Z,85.90
2019-03-17T12:39:09.095Z,86.00
2019-03-17T12:41:38.367Z,85.70
2019-03-17T12:44:07.031Z,85.80
2019-03-17T12:46:35.193Z,85.70
2019-03-17T12:49:03.432Z,85.40
2019-03-17T12:51:31.910Z,85.20
2019-03-17T12:54:00.292Z,85.10
2019-03-17T12:56:28.463Z,84.80
2019-03-17T12:58:57.508Z,84.70
2019-03-17T13:01:25.736Z,84.50
2019-03-17T13:03:53.913Z,84.60
2019-03-17T13:06:22.307Z,84.50
2019-03-17T13:08:50.980Z,84.40
2019-03-17T13:11:19.357Z,84.40
2019-03-17T13:13:49.446Z,84.30
2019-03-17T13:16:19.450Z,84.30
2019-03-17T13:18:49.556Z,84.30
2019-03-17T13:21:17.731Z,84.30
2019-03-17T13:23:46.068Z,84.20
2019-03-17T13:26:14.318Z,84.20
2019-03-17T13:28:44.215Z,84.90
2019-03-17T13:31:12.853Z,84.10
2019-03-17T13:33:41.129Z,84.10
2019-03-17T13:36:09.935Z,84.10
2019-03-17T13:38:41.226Z,84.00
2019-03-17T13:41:09.853Z,84.10
2019-03-17T13:43:40.391Z,84.00
2019-03-17T13:46:08.864Z,84.10
2019-03-17T13:48:37.573Z,84.10
2019-03-17T13:51:05.932Z,84.10
2019-03-17T13:53:34.922Z,84.10
2019-03-17T13:56:03.815Z,84.20
2019-03-17T13:58:32.608Z,84.20
2019-03-17T14:01:00.778Z,84.30
2019-03-17T14:03:29.980Z,84.40
2019-03-17T14:05:58.050Z,84.50
2019-03-17T14:08:26.537Z,84.60
2019-03-17T14:10:55.325Z,84.80
2019-03-17T14:13:23.499Z,84.80
2019-03-17T14:15:54.881Z,85.00
2019-03-17T14:18:23.863Z,85.00
2019-03-17T14:20:52.833Z,85.00
2019-03-17T14:23:21.111Z,85.10
2019-03-17T14:25:51.027Z,85.20
2019-03-17T14:28:19.414Z,85.00
2019-03-17T14:30:47.583Z,85.00
2019-03-17T14:33:16.276Z,85.10
2019-03-17T14:35:44.241Z,85.00
2019-03-17T14:38:12.621Z,85.00
2019-03-17T14:40:52.510Z,85.00
2019-03-17T14:43:10.713Z,84.80
2019-03-17T14:45:39.296Z,84.90
2019-03-17T14:48:07.578Z,84.90
2019-03-17T14:50:35.747Z,84.80
2019-03-17T14:53:04.537Z,84.90
2019-03-17T14:55:32.815Z,84.90
2019-03-17T14:58:01.501Z,84.90
2019-03-17T15:00:30.294Z,84.80
2019-03-17T15:02:59.491Z,84.80
2019-03-17T15:05:27.876Z,84.80
2019-03-17T15:07:56.256Z,84.70
2019-03-17T15:10:25.631Z,84.60
2019-03-17T15:12:53.728Z,84.60
2019-03-17T15:15:22.312Z,84.60
2019-03-17T15:17:51.307Z,84.60
2019-03-17T15:20:19.786Z,84.60
2019-03-17T15:22:48.273Z,84.60
2019-03-17T15:25:16.854Z,84.60
2019-03-17T15:27:45.704Z,84.70
2019-03-17T15:30:14.127Z,84.70
2019-03-17T15:32:42.710Z,84.70
2019-03-17T15:35:10.989Z,84.80
2019-03-17T15:37:39.061Z,84.80
2019-03-17T15:40:09.399Z,84.80
2019-03-17T15:42:37.970Z,84.80
2019-03-17T15:45:06.558Z,84.80
2019-03-17T15:47:37.238Z,84.80
2019-03-17T15:50:05.265Z,84.80
2019-03-17T15:52:34.888Z,84.80
2019-03-17T15:55:03.913Z,84.90
2019-03-17T15:57:33.191Z,84.90
2019-03-17T16:00:01.342Z,84.90
2019-03-17T16:02:31.665Z,84.90
2019-03-17T16:05:01.892Z,84.90
2019-03-17T16:07:41.420Z,85.00
2019-03-17T16:09:59.569Z,85.10
2019-03-17T16:12:30.758Z,85.10
2019-03-17T16:14:58.788Z,85.30
2019-03-17T16:17:28.387Z,85.20
2019-03-17T16:19:59.515Z,85.30
2019-03-17T16:22:27.513Z,85.30
2019-03-17T16:24:55.891Z,85.40
2019-03-17T16:27:24.376Z,85.30
2019-03-17T16:29:52.548Z,85.30
2019-03-17T16:32:21.156Z,85.50
2019-03-17T16:34:50.231Z,85.40
2019-03-17T16:37:18.818Z,85.50
2019-03-17T16:39:47.718Z,85.40
2019-03-17T16:42:15.784Z,85.40
2019-03-17T16:44:44.158Z,85.40
2019-03-17T16:47:13.160Z,85.40
2019-03-17T16:49:41.738Z,85.40
2019-03-17T16:52:10.116Z,85.50
2019-03-17T16:54:38.803Z,85.40
2019-03-17T16:57:07.081Z,85.40
2019-03-17T16:59:35.362Z,85.50
2019-03-17T17:02:03.544Z,85.40
2019-03-17T17:04:32.068Z,85.50
2019-03-17T17:07:00.201Z,85.50
2019-03-17T17:09:29.597Z,85.40
2019-03-17T17:11:57.873Z,85.40
2019-03-17T17:14:26.047Z,85.40
2019-03-17T17:16:54.530Z,85.40
2019-03-17T17:19:22.806Z,85.40
2019-03-17T17:21:51.084Z,85.40
2019-03-17T17:24:19.669Z,86.20
2019-03-17T17:26:48.050Z,85.30
2019-03-17T17:29:16.329Z,85.30
2019-03-17T17:31:45.017Z,85.20
2019-03-17T17:34:13.088Z,85.20
2019-03-17T17:36:41.780Z,85.20
2019-03-17T17:39:10.258Z,85.20
2019-03-17T17:41:38.639Z,85.20
2019-03-17T17:44:07.264Z,85.20
2019-03-17T17:46:36.396Z,85.20
2019-03-17T17:49:04.494Z,85.10
2019-03-17T17:51:32.877Z,85.20
2019-03-17T17:54:01.151Z,85.20
2019-03-17T17:56:29.531Z,85.20
2019-03-17T17:58:58.016Z,85.20
2019-03-17T18:01:26.493Z,85.20
2019-03-17T18:03:54.672Z,85.10
2019-03-17T18:06:23.164Z,85.20
2019-03-17T18:08:51.748Z,85.20
2019-03-17T18:11:20.327Z,85.20
2019-03-17T18:13:48.392Z,85.20
2019-03-17T18:16:16.875Z,85.20
2019-03-17T18:18:45.356Z,85.20
2019-03-17T18:21:13.842Z,85.30
2019-03-17T18:23:42.219Z,85.20
2019-03-17T18:26:10.703Z,85.30
2019-03-17T18:28:39.186Z,85.30
2019-03-17T18:31:07.562Z,85.20
2019-03-17T18:33:35.845Z,85.20
2019-03-17T18:36:04.256Z,85.20
2019-03-17T18:38:32.434Z,85.20
2019-03-17T18:41:01.187Z,85.30
2019-03-17T18:43:29.769Z,85.20
2019-03-17T18:45:58.156Z,85.30
2019-03-17T18:48:26.634Z,85.20
2019-03-17T18:50:55.011Z,85.30
2019-03-17T18:53:23.905Z,85.30
2019-03-17T18:55:51.924Z,85.60
2019-03-17T18:58:20.169Z,85.20
2019-03-17T19:00:48.432Z,85.30
2019-03-17T19:03:16.913Z,85.20
2019-03-17T19:05:45.293Z,85.20
2019-03-17T19:08:13.575Z,85.30
2019-03-17T19:10:41.544Z,85.20
2019-03-17T19:13:10.431Z,85.20
2019-03-17T19:15:38.916Z,85.30
2019-03-17T19:18:07.211Z,85.30
2019-03-17T19:20:35.899Z,85.30
2019-03-17T19:23:04.056Z,85.20
2019-03-17T19:25:32.555Z,85.40
2019-03-17T19:28:00.942Z,85.40
2019-03-17T19:30:29.101Z,85.30
2019-03-17T19:32:58.391Z,85.30
2019-03-17T19:35:27.228Z,85.30
2019-03-17T19:37:55.669Z,85.30
2019-03-17T19:40:24.178Z,85.40
2019-03-17T19:42:59.366Z,85.30
2019-03-17T19:45:22.140Z,85.30
2019-03-17T19:47:51.331Z,85.40
2019-03-17T19:50:20.665Z,85.30
2019-03-17T19:52:48.819Z,85.20
2019-03-17T19:55:17.089Z,85.20
2019-03-17T19:57:45.261Z,85.20
2019-03-17T20:00:13.642Z,85.90
2019-03-17T20:02:41.814Z,85.20
2019-03-17T20:05:10.194Z,85.20
2019-03-17T20:07:38.580Z,85.30
2019-03-17T20:10:06.651Z,85.20
2019-03-17T20:12:35.437Z,85.20
2019-03-17T20:15:03.717Z,85.20
2019-03-17T20:17:32.095Z,85.20
2019-03-17T20:20:00.885Z,85.10
2019-03-17T20:22:29.368Z,85.10
2019-03-17T20:24:57.648Z,85.10
2019-03-17T20:27:26.330Z,85.10
2019-03-17T20:29:54.914Z,85.10
2019-03-17T20:32:22.801Z,85.10
2019-03-17T20:34:51.149Z,85.20
2019-03-17T20:37:19.557Z,85.20
2019-03-17T20:39:47.823Z,85.20
2019-03-17T20:42:17.223Z,85.20
2019-03-17T20:44:45.710Z,85.20
2019-03-17T20:47:14.042Z,85.20
2019-03-17T20:49:42.264Z,85.10
2019-03-17T20:52:10.437Z,85.20
2019-03-17T20:54:38.920Z,85.10
2019-03-17T20:57:07.196Z,85.10
2019-03-17T20:59:35.780Z,85.20
2019-03-17T21:02:04.261Z,85.20
2019-03-17T21:04:32.957Z,85.30
2019-03-17T21:07:01.434Z,85.20
2019-03-17T21:09:29.607Z,85.20
2019-03-17T21:11:58.400Z,85.20
2019-03-17T21:14:26.573Z,85.20
2019-03-17T21:16:55.056Z,85.30
2019-03-17T21:19:23.433Z,85.20
2019-03-17T21:21:51.916Z,85.20
2019-03-17T21:24:20.094Z,85.20
2019-03-17T21:26:49.086Z,85.30
2019-03-17T21:29:17.365Z,85.20
2019-03-17T21:31:45.537Z,85.20
2019-03-17T21:34:14.022Z,85.20
2019-03-17T21:36:42.299Z,85.20
2019-03-17T21:39:10.480Z,85.20
2019-03-17T21:41:38.953Z,85.20
2019-03-17T21:44:08.154Z,85.20
2019-03-17T21:46:36.437Z,85.20
2019-03-17T21:49:05.958Z,85.20
2019-03-17T21:51:34.214Z,85.30
2019-03-17T21:54:02.593Z,85.20
2019-03-17T21:56:30.974Z,85.20
2019-03-17T21:58:59.354Z,85.20
2019-03-17T22:01:27.425Z,85.20
2019-03-17T22:03:56.217Z,85.20
2019-03-17T22:06:24.392Z,85.30
2019-03-17T22:08:52.686Z,85.60
2019-03-17T22:11:20.661Z,85.20
2019-03-17T22:13:49.093Z,85.20
2019-03-17T22:16:17.397Z,85.20
2019-03-17T22:18:45.879Z,85.20
2019-03-17T22:21:14.259Z,85.20
2019-03-17T22:23:42.638Z,85.20
2019-03-17T22:26:10.816Z,85.20
2019-03-17T22:28:39.194Z,85.20
2019-03-17T22:31:07.889Z,85.20
2019-03-17T22:33:37.197Z,85.20
2019-03-17T22:36:06.487Z,85.20
2019-03-17T22:38:34.763Z,85.20
2019-03-17T22:41:03.152Z,85.20
2019-03-17T22:43:31.728Z,85.20
2019-03-17T22:45:59.906Z,85.20
2019-03-17T22:48:28.592Z,85.30
2019-03-17T22:50:57.073Z,85.20
2019-03-17T22:53:25.565Z,85.30
2019-03-17T22:55:53.730Z,85.20
2019-03-17T22:58:22.006Z,85.00
2019-03-17T23:00:50.695Z,85.40
2019-03-17T23:03:20.609Z,85.40
2019-03-17T23:05:49.193Z,85.40
2019-03-17T23:08:17.473Z,85.40
2019-03-17T23:10:45.852Z,85.40
2019-03-17T23:13:14.438Z,85.40
2019-03-17T23:15:42.714Z,85.40
2019-03-17T23:18:12.122Z,85.40
2019-03-17T23:20:40.701Z,85.40
2019-03-17T23:23:08.879Z,85.50
2019-03-17T23:25:37.156Z,85.70
2019-03-17T23:28:05.638Z,85.80
2019-03-17T23:30:34.015Z,85.70
2019-03-17T23:33:02.500Z,85.70
2019-03-17T23:35:31.190Z,85.70
2019-03-17T23:37:59.465Z,85.70
2019-03-17T23:40:27.947Z,85.70
2019-03-17T23:42:56.453Z,85.70
2019-03-17T23:45:25.113Z,85.70
2019-03-17T23:47:53.597Z,85.80
2019-03-17T23:50:21.979Z,85.70
2019-03-17T23:52:50.292Z,85.70
2019-03-17T23:55:18.331Z,85.70
2019-03-17T23:57:47.178Z,85.70
